Aeroporto :
LOGIN :

Iscrizione | Disclaimer

   EN    FR    IT 

 










Sommario :    VFR   VFR Marginale   IFR   IFR Intensivo   IFR Molto Intensivo
Visibilità : 
Base nubi : 
>= 8 km
>= 3000ft
5 / 8 km
1000 / 3000 ft
1500m / 5 km
500 / 1000 ft
800 / 1500m
200 / 500 ft
< 800m
< 200 ft
Simboli :   Temporali  Nebbia  Neve Forte  Precipitazioni Forti  Vento > 20 kt
SIGMETs :   Varie  Temporali  Ghiacco  Turbolenza  Onda orograficha  Ceneri Vulcaniche






- Altitudine del aeroporto : 779 ft
- Codice IATA : CMF


LFLB - Chambery / Aix-Les-Bains

ULTIMO METAR :
  • 192300Z AUTO VRB02KT 9000 BKN010 BKN018 02/01 Q1028

METARs OBSOLETI :
  • 192230Z AUTO 15002KT 5000 BR FEW010 SCT015 02/00 Q1028
  • 192200Z AUTO 24002KT 6000 NSC 02/01 Q1029 TEMPO 0600 FG VV///
  • 192130Z AUTO VRB02KT 5000 BR NSC 02/01 Q1029 NOSIG
  • 192100Z AUTO 11001KT 2000 1200 R18/2400U R36/P5000 BR NSC 03/01 Q1029 BECMG 9999 NSW
  • 192030Z AUTO 00000KT CAVOK 04/02 Q1029 NOSIG

TAF AMD TAF LFLB
Valido dal 19 a 21 ore il 20 a 18 ore UTC


192137Z 1921/2018 VRB02KT CAVOK
TEMPO 1921/2008 2000 BR
PROB40
TEMPO 1921/2007 0600 FG VV///



MetMap, La meteo Aeronautica in un colpo d'occhio ! - Copyright ORBIFLY Dicembre 2007 - Disclaimer

ORBIFLY MET'MAP TEAM :

Programmazione e sviluppo : Alexandra Zaïnal
Concezione : Baudouin d'Aumeries
Aiuto per la programmazione : Marc-Olivier Méhu
Supporto tecnico e logistico : Manuel Goepfert
Aiuto per la traduzione : Arnaldo La Scala

Contatto : metmap@orbifly.com




FONTI E CREDITI :

   NOAA